sensor_id;sensor_type;location;lat;lon;timestamp;P1;durP1;ratioP1;P2;durP2;ratioP2
23617;SDS011;18207;32.078;34.818;2023-07-24T00:00:00;2.00;;;1.90;;
23617;SDS011;18207;32.078;34.818;2023-07-24T00:02:30;2.50;;;2.30;;
23617;SDS011;18207;32.078;34.818;2023-07-24T00:05:02;2.65;;;2.45;;
23617;SDS011;18207;32.078;34.818;2023-07-24T00:07:33;2.60;;;2.40;;
23617;SDS011;18207;32.078;34.818;2023-07-24T00:10:04;2.40;;;2.08;;
23617;SDS011;18207;32.078;34.818;2023-07-24T00:12:34;2.88;;;2.67;;
23617;SDS011;18207;32.078;34.818;2023-07-24T00:15:06;2.42;;;2.25;;
23617;SDS011;18207;32.078;34.818;2023-07-24T00:17:37;2.35;;;2.25;;
23617;SDS011;18207;32.078;34.818;2023-07-24T00:20:10;1.98;;;1.88;;
23617;SDS011;18207;32.078;34.818;2023-07-24T00:22:41;2.28;;;2.17;;
23617;SDS011;18207;32.078;34.818;2023-07-24T00:25:11;2.40;;;2.30;;
23617;SDS011;18207;32.078;34.818;2023-07-24T00:27:42;2.50;;;2.30;;
23617;SDS011;18207;32.078;34.818;2023-07-24T00:30:12;2.25;;;2.15;;
23617;SDS011;18207;32.078;34.818;2023-07-24T00:32:43;2.70;;;2.50;;
23617;SDS011;18207;32.078;34.818;2023-07-24T00:35:16;2.58;;;2.38;;
23617;SDS011;18207;32.078;34.818;2023-07-24T00:37:46;3.17;;;2.67;;
23617;SDS011;18207;32.078;34.818;2023-07-24T00:40:17;2.80;;;2.60;;
23617;SDS011;18207;32.078;34.818;2023-07-24T00:42:47;2.67;;;2.47;;
23617;SDS011;18207;32.078;34.818;2023-07-24T00:45:18;2.85;;;2.65;;
23617;SDS011;18207;32.078;34.818;2023-07-24T00:47:50;2.55;;;2.35;;
23617;SDS011;18207;32.078;34.818;2023-07-24T00:50:22;2.53;;;2.40;;
23617;SDS011;18207;32.078;34.818;2023-07-24T00:52:54;2.55;;;2.35;;
23617;SDS011;18207;32.078;34.818;2023-07-24T00:55:26;1.98;;;1.88;;
23617;SDS011;18207;32.078;34.818;2023-07-24T00:57:56;2.22;;;2.13;;
23617;SDS011;18207;32.078;34.818;2023-07-24T01:00:28;2.47;;;2.28;;
23617;SDS011;18207;32.078;34.818;2023-07-24T01:02:59;2.10;;;2.00;;
23617;SDS011;18207;32.078;34.818;2023-07-24T01:05:31;2.22;;;2.03;;
23617;SDS011;18207;32.078;34.818;2023-07-24T01:08:02;2.47;;;2.00;;
23617;SDS011;18207;32.078;34.818;2023-07-24T01:10:33;2.08;;;1.98;;
23617;SDS011;18207;32.078;34.818;2023-07-24T01:13:05;2.22;;;2.03;;
23617;SDS011;18207;32.078;34.818;2023-07-24T01:15:44;2.28;;;2.17;;
23617;SDS011;18207;32.078;34.818;2023-07-24T01:18:22;2.40;;;2.20;;
23617;SDS011;18207;32.078;34.818;2023-07-24T01:20:57;2.05;;;1.95;;
23617;SDS011;18207;32.078;34.818;2023-07-24T01:23:37;2.08;;;1.95;;
23617;SDS011;18207;32.078;34.818;2023-07-24T01:26:31;2.00;;;1.90;;
23617;SDS011;18207;32.078;34.818;2023-07-24T01:29:02;2.15;;;2.05;;
23617;SDS011;18207;32.078;34.818;2023-07-24T01:31:32;2.20;;;2.00;;
23617;SDS011;18207;32.078;34.818;2023-07-24T01:34:02;2.00;;;1.90;;
23617;SDS011;18207;32.078;34.818;2023-07-24T01:36:32;2.30;;;2.10;;
23617;SDS011;18207;32.078;34.818;2023-07-24T01:39:03;2.28;;;2.10;;
23617;SDS011;18207;32.078;34.818;2023-07-24T01:41:36;2.42;;;2.17;;
23617;SDS011;18207;32.078;34.818;2023-07-24T01:44:07;2.05;;;1.95;;
23617;SDS011;18207;32.078;34.818;2023-07-24T01:46:39;2.08;;;1.98;;
23617;SDS011;18207;32.078;34.818;2023-07-24T01:49:09;2.15;;;2.05;;
23617;SDS011;18207;32.078;34.818;2023-07-24T01:51:40;2.20;;;2.10;;
23617;SDS011;18207;32.078;34.818;2023-07-24T01:54:10;2.35;;;2.17;;
23617;SDS011;18207;32.078;34.818;2023-07-24T01:56:42;2.10;;;2.00;;
23617;SDS011;18207;32.078;34.818;2023-07-24T01:59:13;2.13;;;2.03;;
23617;SDS011;18207;32.078;34.818;2023-07-24T02:01:43;2.13;;;2.03;;
23617;SDS011;18207;32.078;34.818;2023-07-24T02:04:13;2.30;;;2.20;;
23617;SDS011;18207;32.078;34.818;2023-07-24T02:06:43;2.03;;;1.92;;
23617;SDS011;18207;32.078;34.818;2023-07-24T02:09:14;2.28;;;2.10;;
23617;SDS011;18207;32.078;34.818;2023-07-24T02:11:46;3.78;;;2.40;;
23617;SDS011;18207;32.078;34.818;2023-07-24T02:14:17;2.20;;;2.10;;
23617;SDS011;18207;32.078;34.818;2023-07-24T02:16:49;2.38;;;2.28;;
23617;SDS011;18207;32.078;34.818;2023-07-24T02:19:19;2.50;;;2.30;;
23617;SDS011;18207;32.078;34.818;2023-07-24T02:21:49;3.67;;;2.35;;
23617;SDS011;18207;32.078;34.818;2023-07-24T02:24:19;2.80;;;2.60;;
23617;SDS011;18207;32.078;34.818;2023-07-24T02:26:51;2.85;;;2.65;;
23617;SDS011;18207;32.078;34.818;2023-07-24T02:29:22;2.85;;;2.65;;
23617;SDS011;18207;32.078;34.818;2023-07-24T02:31:53;2.80;;;2.60;;
23617;SDS011;18207;32.078;34.818;2023-07-24T02:34:23;5.07;;;3.20;;
23617;SDS011;18207;32.078;34.818;2023-07-24T02:36:55;3.00;;;2.80;;
23617;SDS011;18207;32.078;34.818;2023-07-24T02:39:25;3.33;;;3.13;;
23617;SDS011;18207;32.078;34.818;2023-07-24T02:41:57;3.05;;;2.85;;
23617;SDS011;18207;32.078;34.818;2023-07-24T02:44:27;4.43;;;3.20;;
23617;SDS011;18207;32.078;34.818;2023-07-24T02:46:57;3.30;;;3.03;;
23617;SDS011;18207;32.078;34.818;2023-07-24T02:49:27;3.15;;;2.95;;
23617;SDS011;18207;32.078;34.818;2023-07-24T02:51:58;3.25;;;3.05;;
23617;SDS011;18207;32.078;34.818;2023-07-24T02:54:28;3.35;;;3.05;;
23617;SDS011;18207;32.078;34.818;2023-07-24T02:57:01;3.13;;;2.90;;
23617;SDS011;18207;32.078;34.818;2023-07-24T02:59:31;3.20;;;2.90;;
23617;SDS011;18207;32.078;34.818;2023-07-24T03:02:02;3.45;;;2.78;;
23617;SDS011;18207;32.078;34.818;2023-07-24T03:04:33;3.42;;;3.13;;
23617;SDS011;18207;32.078;34.818;2023-07-24T03:07:03;3.70;;;3.40;;
23617;SDS011;18207;32.078;34.818;2023-07-24T03:09:33;3.40;;;3.10;;
23617;SDS011;18207;32.078;34.818;2023-07-24T03:12:05;3.10;;;2.90;;
23617;SDS011;18207;32.078;34.818;2023-07-24T03:14:37;3.60;;;3.30;;
23617;SDS011;18207;32.078;34.818;2023-07-24T03:17:07;3.38;;;3.17;;
23617;SDS011;18207;32.078;34.818;2023-07-24T03:19:38;3.33;;;2.92;;
23617;SDS011;18207;32.078;34.818;2023-07-24T03:22:08;3.15;;;2.95;;
23617;SDS011;18207;32.078;34.818;2023-07-24T03:24:39;3.70;;;3.40;;
23617;SDS011;18207;32.078;34.818;2023-07-24T03:27:10;3.67;;;3.38;;
23617;SDS011;18207;32.078;34.818;2023-07-24T03:29:41;4.15;;;3.75;;
23617;SDS011;18207;32.078;34.818;2023-07-24T03:32:11;3.35;;;3.05;;
23617;SDS011;18207;32.078;34.818;2023-07-24T03:34:41;4.05;;;3.63;;
23617;SDS011;18207;32.078;34.818;2023-07-24T03:37:11;3.75;;;3.45;;
23617;SDS011;18207;32.078;34.818;2023-07-24T03:39:42;3.85;;;3.53;;
23617;SDS011;18207;32.078;34.818;2023-07-24T03:42:24;3.67;;;3.35;;
23617;SDS011;18207;32.078;34.818;2023-07-24T03:44:56;3.90;;;3.60;;
23617;SDS011;18207;32.078;34.818;2023-07-24T03:47:26;3.42;;;3.17;;
23617;SDS011;18207;32.078;34.818;2023-07-24T03:49:57;3.63;;;3.33;;
23617;SDS011;18207;32.078;34.818;2023-07-24T03:52:27;3.58;;;3.28;;
23617;SDS011;18207;32.078;34.818;2023-07-24T03:54:58;3.47;;;3.25;;
23617;SDS011;18207;32.078;34.818;2023-07-24T03:57:29;3.63;;;3.20;;
23617;SDS011;18207;32.078;34.818;2023-07-24T03:59:59;3.63;;;3.33;;
23617;SDS011;18207;32.078;34.818;2023-07-24T04:02:30;3.35;;;3.15;;
23617;SDS011;18207;32.078;34.818;2023-07-24T04:05:00;4.18;;;3.78;;
23617;SDS011;18207;32.078;34.818;2023-07-24T04:07:31;3.65;;;3.35;;
23617;SDS011;18207;32.078;34.818;2023-07-24T04:10:02;3.60;;;3.30;;
23617;SDS011;18207;32.078;34.818;2023-07-24T04:12:34;4.03;;;3.70;;
23617;SDS011;18207;32.078;34.818;2023-07-24T04:15:05;3.72;;;3.42;;
23617;SDS011;18207;32.078;34.818;2023-07-24T04:17:36;3.47;;;3.22;;
23617;SDS011;18207;32.078;34.818;2023-07-24T04:20:09;3.78;;;3.47;;
23617;SDS011;18207;32.078;34.818;2023-07-24T04:22:39;3.72;;;3.50;;
23617;SDS011;18207;32.078;34.818;2023-07-24T04:25:09;3.80;;;3.50;;
23617;SDS011;18207;32.078;34.818;2023-07-24T04:27:41;3.92;;;3.63;;
23617;SDS011;18207;32.078;34.818;2023-07-24T04:30:12;4.07;;;3.75;;
23617;SDS011;18207;32.078;34.818;2023-07-24T04:32:42;4.07;;;3.65;;
23617;SDS011;18207;32.078;34.818;2023-07-24T04:35:13;3.88;;;3.58;;
23617;SDS011;18207;32.078;34.818;2023-07-24T04:37:43;3.75;;;3.47;;
23617;SDS011;18207;32.078;34.818;2023-07-24T04:40:13;3.55;;;3.30;;
23617;SDS011;18207;32.078;34.818;2023-07-24T04:42:46;4.18;;;3.72;;
23617;SDS011;18207;32.078;34.818;2023-07-24T04:45:16;3.80;;;3.50;;
23617;SDS011;18207;32.078;34.818;2023-07-24T04:47:49;3.70;;;3.40;;
23617;SDS011;18207;32.078;34.818;2023-07-24T04:50:19;3.42;;;3.17;;
23617;SDS011;18207;32.078;34.818;2023-07-24T04:52:49;3.75;;;3.45;;
23617;SDS011;18207;32.078;34.818;2023-07-24T04:55:19;3.70;;;3.50;;
23617;SDS011;18207;32.078;34.818;2023-07-24T04:57:51;4.00;;;3.70;;
23617;SDS011;18207;32.078;34.818;2023-07-24T05:00:21;3.88;;;3.60;;
23617;SDS011;18207;32.078;34.818;2023-07-24T05:02:51;4.00;;;3.70;;
23617;SDS011;18207;32.078;34.818;2023-07-24T05:05:22;3.75;;;3.53;;
23617;SDS011;18207;32.078;34.818;2023-07-24T05:07:52;3.78;;;3.47;;
23617;SDS011;18207;32.078;34.818;2023-07-24T05:10:22;3.90;;;3.60;;
23617;SDS011;18207;32.078;34.818;2023-07-24T05:12:54;3.85;;;3.33;;
23617;SDS011;18207;32.078;34.818;2023-07-24T05:15:25;3.25;;;3.05;;
23617;SDS011;18207;32.078;34.818;2023-07-24T05:17:55;3.70;;;3.40;;
23617;SDS011;18207;32.078;34.818;2023-07-24T05:20:25;3.47;;;3.17;;
23617;SDS011;18207;32.078;34.818;2023-07-24T05:22:56;3.17;;;2.95;;
23617;SDS011;18207;32.078;34.818;2023-07-24T05:25:26;2.88;;;2.67;;
23617;SDS011;18207;32.078;34.818;2023-07-24T05:27:57;3.38;;;3.17;;
23617;SDS011;18207;32.078;34.818;2023-07-24T05:30:27;3.17;;;2.95;;
23617;SDS011;18207;32.078;34.818;2023-07-24T05:32:58;3.00;;;2.80;;
23617;SDS011;18207;32.078;34.818;2023-07-24T05:35:28;3.10;;;2.90;;
23617;SDS011;18207;32.078;34.818;2023-07-24T05:37:59;3.30;;;3.10;;
23617;SDS011;18207;32.078;34.818;2023-07-24T05:40:29;3.42;;;3.22;;
23617;SDS011;18207;32.078;34.818;2023-07-24T05:43:01;3.13;;;2.92;;
23617;SDS011;18207;32.078;34.818;2023-07-24T05:45:31;3.22;;;3.03;;
23617;SDS011;18207;32.078;34.818;2023-07-24T05:48:02;3.42;;;3.13;;
23617;SDS011;18207;32.078;34.818;2023-07-24T05:50:33;3.50;;;3.20;;
23617;SDS011;18207;32.078;34.818;2023-07-24T05:53:03;3.50;;;3.28;;
23617;SDS011;18207;32.078;34.818;2023-07-24T05:55:33;3.42;;;3.20;;
23617;SDS011;18207;32.078;34.818;2023-07-24T05:58:05;3.45;;;3.22;;
23617;SDS011;18207;32.078;34.818;2023-07-24T06:00:35;3.20;;;3.00;;
23617;SDS011;18207;32.078;34.818;2023-07-24T06:03:06;3.40;;;3.17;;
23617;SDS011;18207;32.078;34.818;2023-07-24T06:05:36;3.40;;;3.20;;
23617;SDS011;18207;32.078;34.818;2023-07-24T06:08:06;3.33;;;3.13;;
23617;SDS011;18207;32.078;34.818;2023-07-24T06:10:37;3.33;;;3.13;;
23617;SDS011;18207;32.078;34.818;2023-07-24T06:13:10;3.17;;;2.97;;
23617;SDS011;18207;32.078;34.818;2023-07-24T06:15:40;4.00;;;3.20;;
23617;SDS011;18207;32.078;34.818;2023-07-24T06:18:11;2.97;;;2.78;;
23617;SDS011;18207;32.078;34.818;2023-07-24T06:20:41;3.05;;;2.85;;
23617;SDS011;18207;32.078;34.818;2023-07-24T06:23:11;3.15;;;2.95;;
23617;SDS011;18207;32.078;34.818;2023-07-24T06:25:41;3.20;;;3.00;;
23617;SDS011;18207;32.078;34.818;2023-07-24T06:28:14;3.53;;;3.28;;
23617;SDS011;18207;32.078;34.818;2023-07-24T06:30:44;3.20;;;2.90;;
23617;SDS011;18207;32.078;34.818;2023-07-24T06:33:16;3.10;;;2.90;;
23617;SDS011;18207;32.078;34.818;2023-07-24T06:35:46;3.38;;;3.17;;
23617;SDS011;18207;32.078;34.818;2023-07-24T06:38:17;3.28;;;3.08;;
23617;SDS011;18207;32.078;34.818;2023-07-24T06:40:48;3.08;;;2.88;;
23617;SDS011;18207;32.078;34.818;2023-07-24T06:43:20;3.15;;;2.95;;
23617;SDS011;18207;32.078;34.818;2023-07-24T06:45:51;3.00;;;2.80;;
23617;SDS011;18207;32.078;34.818;2023-07-24T06:48:21;2.80;;;2.63;;
23617;SDS011;18207;32.078;34.818;2023-07-24T06:50:52;2.60;;;2.50;;
23617;SDS011;18207;32.078;34.818;2023-07-24T06:53:22;2.72;;;2.53;;
23617;SDS011;18207;32.078;34.818;2023-07-24T06:55:52;2.97;;;2.78;;
23617;SDS011;18207;32.078;34.818;2023-07-24T06:58:24;2.72;;;2.53;;
23617;SDS011;18207;32.078;34.818;2023-07-24T07:00:54;2.45;;;2.35;;
23617;SDS011;18207;32.078;34.818;2023-07-24T07:03:24;2.65;;;2.45;;
23617;SDS011;18207;32.078;34.818;2023-07-24T07:05:58;2.50;;;2.40;;
23617;SDS011;18207;32.078;34.818;2023-07-24T07:08:28;2.17;;;2.08;;
23617;SDS011;18207;32.078;34.818;2023-07-24T07:10:59;2.60;;;2.40;;
23617;SDS011;18207;32.078;34.818;2023-07-24T07:13:32;2.30;;;2.20;;
23617;SDS011;18207;32.078;34.818;2023-07-24T07:16:02;2.70;;;2.50;;
23617;SDS011;18207;32.078;34.818;2023-07-24T07:18:33;2.50;;;2.35;;
23617;SDS011;18207;32.078;34.818;2023-07-24T07:21:04;2.50;;;2.30;;
23617;SDS011;18207;32.078;34.818;2023-07-24T07:23:34;2.40;;;2.20;;
23617;SDS011;18207;32.078;34.818;2023-07-24T07:26:04;2.22;;;2.00;;
23617;SDS011;18207;32.078;34.818;2023-07-24T07:28:36;2.30;;;2.20;;
23617;SDS011;18207;32.078;34.818;2023-07-24T07:31:06;2.05;;;1.95;;
23617;SDS011;18207;32.078;34.818;2023-07-24T07:33:37;2.33;;;2.15;;
23617;SDS011;18207;32.078;34.818;2023-07-24T07:36:07;2.45;;;2.25;;
23617;SDS011;18207;32.078;34.818;2023-07-24T07:38:38;2.40;;;2.30;;
23617;SDS011;18207;32.078;34.818;2023-07-24T07:41:08;2.30;;;2.20;;
23617;SDS011;18207;32.078;34.818;2023-07-24T07:43:41;2.60;;;2.40;;
23617;SDS011;18207;32.078;34.818;2023-07-24T07:46:11;2.40;;;2.30;;
23617;SDS011;18207;32.078;34.818;2023-07-24T07:48:41;2.13;;;2.03;;
23617;SDS011;18207;32.078;34.818;2023-07-24T07:51:13;3.25;;;2.47;;
23617;SDS011;18207;32.078;34.818;2023-07-24T07:53:43;2.40;;;2.30;;
23617;SDS011;18207;32.078;34.818;2023-07-24T07:56:13;2.20;;;2.10;;
23617;SDS011;18207;32.078;34.818;2023-07-24T07:58:45;2.47;;;2.38;;
23617;SDS011;18207;32.078;34.818;2023-07-24T08:01:16;2.50;;;2.30;;
23617;SDS011;18207;32.078;34.818;2023-07-24T08:03:46;2.40;;;2.20;;
23617;SDS011;18207;32.078;34.818;2023-07-24T08:06:17;2.28;;;2.17;;
23617;SDS011;18207;32.078;34.818;2023-07-24T08:08:48;2.28;;;2.17;;
23617;SDS011;18207;32.078;34.818;2023-07-24T08:11:19;2.40;;;2.20;;
23617;SDS011;18207;32.078;34.818;2023-07-24T08:13:51;2.13;;;2.03;;
23617;SDS011;18207;32.078;34.818;2023-07-24T08:16:22;2.55;;;2.13;;
23617;SDS011;18207;32.078;34.818;2023-07-24T08:18:52;2.30;;;2.20;;
23617;SDS011;18207;32.078;34.818;2023-07-24T08:21:24;2.10;;;2.00;;
23617;SDS011;18207;32.078;34.818;2023-07-24T08:23:54;2.30;;;2.10;;
23617;SDS011;18207;32.078;34.818;2023-07-24T08:26:26;2.08;;;1.98;;
23617;SDS011;18207;32.078;34.818;2023-07-24T08:28:59;2.05;;;1.92;;
23617;SDS011;18207;32.078;34.818;2023-07-24T08:31:30;2.00;;;1.90;;
23617;SDS011;18207;32.078;34.818;2023-07-24T08:34:01;2.00;;;1.90;;
23617;SDS011;18207;32.078;34.818;2023-07-24T08:36:31;2.25;;;2.00;;
23617;SDS011;18207;32.078;34.818;2023-07-24T08:39:01;2.00;;;1.90;;
23617;SDS011;18207;32.078;34.818;2023-07-24T08:41:31;1.85;;;1.75;;
23617;SDS011;18207;32.078;34.818;2023-07-24T08:44:06;2.03;;;1.92;;
23617;SDS011;18207;32.078;34.818;2023-07-24T08:46:38;2.00;;;1.90;;
23617;SDS011;18207;32.078;34.818;2023-07-24T08:49:12;1.90;;;1.80;;
23617;SDS011;18207;32.078;34.818;2023-07-24T08:51:44;1.95;;;1.85;;
23617;SDS011;18207;32.078;34.818;2023-07-24T08:54:15;1.85;;;1.75;;
23617;SDS011;18207;32.078;34.818;2023-07-24T08:56:48;2.10;;;2.00;;
23617;SDS011;18207;32.078;34.818;2023-07-24T08:59:20;1.95;;;1.85;;
23617;SDS011;18207;32.078;34.818;2023-07-24T09:01:51;1.92;;;1.83;;
23617;SDS011;18207;32.078;34.818;2023-07-24T09:04:21;1.90;;;1.80;;
23617;SDS011;18207;32.078;34.818;2023-07-24T09:06:53;2.10;;;2.00;;
23617;SDS011;18207;32.078;34.818;2023-07-24T09:09:28;1.88;;;1.77;;
23617;SDS011;18207;32.078;34.818;2023-07-24T09:12:00;1.95;;;1.85;;
23617;SDS011;18207;32.078;34.818;2023-07-24T09:14:32;2.00;;;1.90;;
23617;SDS011;18207;32.078;34.818;2023-07-24T09:17:03;1.98;;;1.88;;
23617;SDS011;18207;32.078;34.818;2023-07-24T09:19:35;1.95;;;1.85;;
23617;SDS011;18207;32.078;34.818;2023-07-24T09:22:09;1.60;;;1.60;;
23617;SDS011;18207;32.078;34.818;2023-07-24T09:24:50;1.80;;;1.70;;
23617;SDS011;18207;32.078;34.818;2023-07-24T09:27:24;2.00;;;1.90;;
23617;SDS011;18207;32.078;34.818;2023-07-24T09:30:00;1.73;;;1.63;;
23617;SDS011;18207;32.078;34.818;2023-07-24T09:32:30;1.75;;;1.65;;
23617;SDS011;18207;32.078;34.818;2023-07-24T09:35:01;1.92;;;1.83;;
23617;SDS011;18207;32.078;34.818;2023-07-24T09:37:33;1.85;;;1.75;;
23617;SDS011;18207;32.078;34.818;2023-07-24T09:40:03;1.85;;;1.63;;
23617;SDS011;18207;32.078;34.818;2023-07-24T09:42:35;1.67;;;1.58;;
23617;SDS011;18207;32.078;34.818;2023-07-24T09:45:29;2.00;;;1.90;;
23617;SDS011;18207;32.078;34.818;2023-07-24T09:48:02;2.05;;;1.95;;
23617;SDS011;18207;32.078;34.818;2023-07-24T09:50:58;1.60;;;1.50;;
23617;SDS011;18207;32.078;34.818;2023-07-24T09:53:31;1.58;;;1.50;;
23617;SDS011;18207;32.078;34.818;2023-07-24T09:56:08;1.70;;;1.60;;
23617;SDS011;18207;32.078;34.818;2023-07-24T09:58:39;1.90;;;1.80;;
23617;SDS011;18207;32.078;34.818;2023-07-24T10:01:12;1.90;;;1.80;;
23617;SDS011;18207;32.078;34.818;2023-07-24T10:03:46;1.85;;;1.75;;
23617;SDS011;18207;32.078;34.818;2023-07-24T10:06:18;1.80;;;1.70;;
23617;SDS011;18207;32.078;34.818;2023-07-24T10:08:50;1.67;;;1.58;;
23617;SDS011;18207;32.078;34.818;2023-07-24T10:11:22;1.60;;;1.50;;
23617;SDS011;18207;32.078;34.818;2023-07-24T10:13:55;1.88;;;1.77;;
23617;SDS011;18207;32.078;34.818;2023-07-24T10:16:29;1.73;;;1.63;;
23617;SDS011;18207;32.078;34.818;2023-07-24T10:18:59;1.33;;;1.30;;
23617;SDS011;18207;32.078;34.818;2023-07-24T10:21:29;2.75;;;1.80;;
23617;SDS011;18207;32.078;34.818;2023-07-24T10:24:00;2.42;;;1.60;;
23617;SDS011;18207;32.078;34.818;2023-07-24T10:26:30;2.40;;;1.80;;
23617;SDS011;18207;32.078;34.818;2023-07-24T10:29:03;2.33;;;1.65;;
23617;SDS011;18207;32.078;34.818;2023-07-24T10:31:35;2.25;;;1.75;;
23617;SDS011;18207;32.078;34.818;2023-07-24T10:34:06;1.50;;;1.45;;
23617;SDS011;18207;32.078;34.818;2023-07-24T10:36:37;1.75;;;1.65;;
23617;SDS011;18207;32.078;34.818;2023-07-24T10:39:13;1.80;;;1.70;;
23617;SDS011;18207;32.078;34.818;2023-07-24T10:42:04;1.70;;;1.60;;
23617;SDS011;18207;32.078;34.818;2023-07-24T10:44:36;1.58;;;1.48;;
23617;SDS011;18207;32.078;34.818;2023-07-24T10:47:08;1.38;;;1.38;;
23617;SDS011;18207;32.078;34.818;2023-07-24T10:49:42;1.42;;;1.40;;
23617;SDS011;18207;32.078;34.818;2023-07-24T10:52:18;1.50;;;1.40;;
23617;SDS011;18207;32.078;34.818;2023-07-24T10:54:57;1.50;;;1.40;;
23617;SDS011;18207;32.078;34.818;2023-07-24T10:57:30;1.67;;;1.50;;
23617;SDS011;18207;32.078;34.818;2023-07-24T11:00:00;1.98;;;1.60;;
23617;SDS011;18207;32.078;34.818;2023-07-24T11:02:32;1.30;;;1.30;;
23617;SDS011;18207;32.078;34.818;2023-07-24T11:05:04;1.67;;;1.58;;
23617;SDS011;18207;32.078;34.818;2023-07-24T11:07:36;1.70;;;1.60;;
23617;SDS011;18207;32.078;34.818;2023-07-24T11:10:14;1.60;;;1.50;;
23617;SDS011;18207;32.078;34.818;2023-07-24T11:12:47;1.25;;;1.25;;
23617;SDS011;18207;32.078;34.818;2023-07-24T11:15:23;1.50;;;1.40;;
23617;SDS011;18207;32.078;34.818;2023-07-24T11:17:57;1.60;;;1.50;;
23617;SDS011;18207;32.078;34.818;2023-07-24T11:20:29;1.50;;;1.40;;
23617;SDS011;18207;32.078;34.818;2023-07-24T11:22:59;1.30;;;1.20;;
23617;SDS011;18207;32.078;34.818;2023-07-24T11:25:30;1.42;;;1.33;;
23617;SDS011;18207;32.078;34.818;2023-07-24T11:28:01;1.73;;;1.30;;
23617;SDS011;18207;32.078;34.818;2023-07-24T11:30:34;1.45;;;1.40;;
23617;SDS011;18207;32.078;34.818;2023-07-24T11:33:07;2.53;;;1.45;;
23617;SDS011;18207;32.078;34.818;2023-07-24T11:35:43;1.40;;;1.30;;
23617;SDS011;18207;32.078;34.818;2023-07-24T11:38:14;1.40;;;1.40;;
23617;SDS011;18207;32.078;34.818;2023-07-24T11:40:45;1.33;;;1.30;;
23617;SDS011;18207;32.078;34.818;2023-07-24T11:43:17;1.50;;;1.40;;
23617;SDS011;18207;32.078;34.818;2023-07-24T11:45:49;1.45;;;1.35;;
23617;SDS011;18207;32.078;34.818;2023-07-24T11:48:24;1.50;;;1.40;;
23617;SDS011;18207;32.078;34.818;2023-07-24T11:50:56;1.40;;;1.30;;
23617;SDS011;18207;32.078;34.818;2023-07-24T11:53:27;1.10;;;1.10;;
23617;SDS011;18207;32.078;34.818;2023-07-24T11:55:59;1.70;;;1.25;;
23617;SDS011;18207;32.078;34.818;2023-07-24T11:58:30;1.20;;;1.10;;
23617;SDS011;18207;32.078;34.818;2023-07-24T12:01:00;1.20;;;1.20;;
23617;SDS011;18207;32.078;34.818;2023-07-24T12:03:32;1.20;;;1.20;;
23617;SDS011;18207;32.078;34.818;2023-07-24T12:06:03;1.65;;;1.50;;
23617;SDS011;18207;32.078;34.818;2023-07-24T12:08:34;1.60;;;1.50;;
23617;SDS011;18207;32.078;34.818;2023-07-24T12:11:15;1.38;;;1.30;;
23617;SDS011;18207;32.078;34.818;2023-07-24T12:13:46;1.08;;;1.08;;
23617;SDS011;18207;32.078;34.818;2023-07-24T12:16:17;1.90;;;1.40;;
23617;SDS011;18207;32.078;34.818;2023-07-24T12:18:49;1.40;;;1.30;;
23617;SDS011;18207;32.078;34.818;2023-07-24T12:21:20;1.20;;;1.20;;
23617;SDS011;18207;32.078;34.818;2023-07-24T12:23:49;1.63;;;1.52;;
23617;SDS011;18207;32.078;34.818;2023-07-24T12:26:20;1.30;;;1.30;;
23617;SDS011;18207;32.078;34.818;2023-07-24T12:28:52;1.40;;;1.30;;
23617;SDS011;18207;32.078;34.818;2023-07-24T12:31:23;1.38;;;1.27;;
23617;SDS011;18207;32.078;34.818;2023-07-24T12:33:56;1.25;;;1.15;;
23617;SDS011;18207;32.078;34.818;2023-07-24T12:36:26;1.02;;;1.02;;
23617;SDS011;18207;32.078;34.818;2023-07-24T12:38:56;0.85;;;0.85;;
23617;SDS011;18207;32.078;34.818;2023-07-24T12:41:27;1.30;;;1.20;;
23617;SDS011;18207;32.078;34.818;2023-07-24T12:43:57;1.20;;;1.10;;
23617;SDS011;18207;32.078;34.818;2023-07-24T12:46:28;1.30;;;1.20;;
23617;SDS011;18207;32.078;34.818;2023-07-24T12:49:01;1.05;;;0.95;;
23617;SDS011;18207;32.078;34.818;2023-07-24T12:51:32;0.90;;;0.90;;
23617;SDS011;18207;32.078;34.818;2023-07-24T12:54:02;1.30;;;1.20;;
23617;SDS011;18207;32.078;34.818;2023-07-24T12:56:52;1.23;;;1.15;;
23617;SDS011;18207;32.078;34.818;2023-07-24T12:59:22;1.35;;;1.30;;
23617;SDS011;18207;32.078;34.818;2023-07-24T13:01:52;0.85;;;0.85;;
23617;SDS011;18207;32.078;34.818;2023-07-24T13:04:24;1.00;;;1.00;;
23617;SDS011;18207;32.078;34.818;2023-07-24T13:06:55;1.00;;;1.00;;
23617;SDS011;18207;32.078;34.818;2023-07-24T13:09:29;1.08;;;1.08;;
23617;SDS011;18207;32.078;34.818;2023-07-24T13:12:00;1.20;;;1.20;;
23617;SDS011;18207;32.078;34.818;2023-07-24T13:14:30;1.30;;;1.20;;
23617;SDS011;18207;32.078;34.818;2023-07-24T13:17:01;1.20;;;1.20;;
23617;SDS011;18207;32.078;34.818;2023-07-24T13:19:33;2.05;;;1.00;;
23617;SDS011;18207;32.078;34.818;2023-07-24T13:22:03;1.40;;;1.30;;
23617;SDS011;18207;32.078;34.818;2023-07-24T13:24:35;1.23;;;1.23;;
23617;SDS011;18207;32.078;34.818;2023-07-24T13:27:05;1.50;;;1.40;;
23617;SDS011;18207;32.078;34.818;2023-07-24T13:29:36;1.08;;;1.08;;
23617;SDS011;18207;32.078;34.818;2023-07-24T13:32:06;1.30;;;1.20;;
23617;SDS011;18207;32.078;34.818;2023-07-24T13:34:39;1.10;;;1.10;;
23617;SDS011;18207;32.078;34.818;2023-07-24T13:37:09;1.30;;;1.20;;
23617;SDS011;18207;32.078;34.818;2023-07-24T13:39:39;0.80;;;0.80;;
23617;SDS011;18207;32.078;34.818;2023-07-24T13:42:10;1.17;;;1.08;;
23617;SDS011;18207;32.078;34.818;2023-07-24T13:44:40;1.15;;;1.13;;
23617;SDS011;18207;32.078;34.818;2023-07-24T13:47:10;1.38;;;1.27;;
23617;SDS011;18207;32.078;34.818;2023-07-24T13:49:41;1.25;;;1.25;;
23617;SDS011;18207;32.078;34.818;2023-07-24T13:52:11;1.08;;;1.05;;
23617;SDS011;18207;32.078;34.818;2023-07-24T13:54:42;1.15;;;1.15;;
23617;SDS011;18207;32.078;34.818;2023-07-24T13:57:12;1.25;;;1.15;;
23617;SDS011;18207;32.078;34.818;2023-07-24T13:59:42;1.20;;;1.20;;
23617;SDS011;18207;32.078;34.818;2023-07-24T14:02:12;1.10;;;1.10;;
23617;SDS011;18207;32.078;34.818;2023-07-24T14:04:44;0.93;;;0.93;;
23617;SDS011;18207;32.078;34.818;2023-07-24T14:07:15;1.23;;;1.10;;
23617;SDS011;18207;32.078;34.818;2023-07-24T14:09:46;1.30;;;1.20;;
23617;SDS011;18207;32.078;34.818;2023-07-24T14:12:16;1.02;;;1.00;;
23617;SDS011;18207;32.078;34.818;2023-07-24T14:14:46;1.10;;;0.95;;
23617;SDS011;18207;32.078;34.818;2023-07-24T14:17:16;1.20;;;1.05;;
23617;SDS011;18207;32.078;34.818;2023-07-24T14:19:48;1.33;;;1.23;;
23617;SDS011;18207;32.078;34.818;2023-07-24T14:22:19;0.85;;;0.85;;
23617;SDS011;18207;32.078;34.818;2023-07-24T14:24:52;1.00;;;1.00;;
23617;SDS011;18207;32.078;34.818;2023-07-24T14:27:22;1.38;;;1.27;;
23617;SDS011;18207;32.078;34.818;2023-07-24T14:29:53;1.95;;;1.30;;
23617;SDS011;18207;32.078;34.818;2023-07-24T14:32:23;1.02;;;1.00;;
23617;SDS011;18207;32.078;34.818;2023-07-24T14:34:55;1.05;;;0.88;;
23617;SDS011;18207;32.078;34.818;2023-07-24T14:37:27;1.10;;;1.00;;
23617;SDS011;18207;32.078;34.818;2023-07-24T14:39:57;1.77;;;0.95;;
23617;SDS011;18207;32.078;34.818;2023-07-24T14:42:28;1.02;;;1.00;;
23617;SDS011;18207;32.078;34.818;2023-07-24T14:44:58;1.00;;;1.00;;
23617;SDS011;18207;32.078;34.818;2023-07-24T14:47:31;1.27;;;1.15;;
23617;SDS011;18207;32.078;34.818;2023-07-24T14:50:04;3.58;;;1.52;;
23617;SDS011;18207;32.078;34.818;2023-07-24T14:52:36;2.08;;;1.00;;
23617;SDS011;18207;32.078;34.818;2023-07-24T14:55:06;1.90;;;1.17;;
23617;SDS011;18207;32.078;34.818;2023-07-24T14:57:37;0.85;;;0.85;;